Flight Track Log - Related Links

Times and Time Zones

All times are in EST time to prevent confusion due to time zone crossing. See the JZA8813 flight status page for this flight to view local times or setup timezone preferences in your user account.

Time Position Orientation Groundspeed Altitude Reporting Facility
EST Latitude Longitude Course Direction KTS MPH feet Rate Location/Type
Sun 06:00:01 PM 46.1500 -60.0500 242° Southwest 200 230 1,000  Level Moncton Center
Sun 06:01:01 PM 46.1333 -60.0667 215° Southwest 120 138 2,100 1,050 Climbing Moncton Center
Sun 06:02:01 PM 46.1167 -60.1167 244° Southwest 130 150 3,100 1,000 Climbing Moncton Center
Sun 06:03:01 PM 46.0833 -60.1667 226° Southwest 140 161 4,100 1,000 Climbing Moncton Center
Sun 06:04:00 PM 46.0233 -60.4429 245° Southwest  Level Estimated
Sun 06:04:01 PM 46.0667 -60.2167 244° Southwest 150 173 5,100  Level Moncton Center
Sun 06:05:00 PM 45.9944 -60.5208 242° Southwest  Level FlightAware Approximate
Sun 06:05:01 PM 46.0500 -60.3000 254° West 150 173 6,000  Level Moncton Center
Sun 06:06:01 PM 46.0333 -60.3500 244° Southwest 160 184 7,100 1,100 Climbing Moncton Center
Sun 06:07:01 PM 46.0000 -60.4000 226° Southwest 150 173 8,200 1,000 Climbing Moncton Center
Sun 06:08:01 PM 45.9833 -60.4667 250° West 160 184 9,100 850 Climbing Moncton Center
Sun 06:09:01 PM 45.9833 -60.5167 270° West 160 184 9,900 850 Climbing Moncton Center
Sun 06:10:01 PM 45.9500 -60.5667 226° Southwest 160 184 10,800 850 Climbing Moncton Center
Sun 06:11:01 PM 45.9333 -60.6167 244° Southwest 160 184 11,600 800 Climbing Moncton Center
Sun 06:12:01 PM 45.9167 -60.7000 254° West 160 184 12,400 750 Climbing Moncton Center
Sun 06:13:01 PM 45.8833 -60.7500 226° Southwest 170 196 13,100 850 Climbing Moncton Center
Sun 06:14:01 PM 45.8667 -60.8167 250° West 160 184 14,100 850 Climbing Moncton Center
Sun 06:15:01 PM 45.8500 -60.8667 244° Southwest 160 184 14,800 650 Climbing Moncton Center
Sun 06:16:01 PM 45.8167 -60.9167 226° Southwest 160 184 15,400 600 Climbing Moncton Center
Sun 06:17:01 PM 45.8000 -60.9833 250° West 170 196 16,000 300 Climbing Moncton Center
Sun 06:18:01 PM 45.7833 -61.0667 254° West 190 219 16,000 50 Level Moncton Center
Sun 06:19:01 PM 45.7667 -61.1333 250° West 200 230 16,100 50 Climbing Moncton Center
Sun 06:20:01 PM 45.7333 -61.2167 240° Southwest 210 242 16,100 50 Level Moncton Center
Sun 06:21:01 PM 45.7000 -61.2833 234° Southwest 220 253 16,200  Climbing Moncton Center
Sun 06:22:01 PM 45.6667 -61.3500 234° Southwest 220 253 16,100 -50 Descending Moncton Center
Sun 06:23:01 PM 45.6333 -61.4333 240° Southwest 220 253 16,100 -50 Level Moncton Center
Sun 06:24:01 PM 45.6167 -61.5000 250° West 220 253 16,000  Descending Moncton Center
Sun 06:25:01 PM 45.5833 -61.6000 245° Southwest 220 253 16,100  Climbing Moncton Center
Sun 06:26:01 PM 45.5500 -61.6667 234° Southwest 220 253 16,000  Descending Moncton Center
Sun 06:27:01 PM 45.5333 -61.7500 254° West 220 253 16,100  Climbing Moncton Center
Sun 06:28:01 PM 45.5000 -61.8167 235° Southwest 220 253 16,000 -50 Descending Moncton Center
Sun 06:29:01 PM 45.4833 -61.9000 254° West 220 253 16,000  Level Moncton Center
Sun 06:30:01 PM 45.4500 -61.9833 240° Southwest 220 253 16,000  Level Moncton Center
Sun 06:31:01 PM 45.4167 -62.0667 240° Southwest 220 253 16,000  Level Moncton Center
Sun 06:32:01 PM 45.3833 -62.1333 235° Southwest 220 253 16,000  Level Moncton Center
Sun 06:33:01 PM 45.3500 -62.2000 235° Southwest 220 253 16,000 -50 Level Moncton Center
Sun 06:34:01 PM 45.3333 -62.2833 254° West 220 253 15,900 -100 Descending Moncton Center
Sun 06:35:01 PM 45.3000 -62.3500 235° Southwest 220 253 15,800 -300 Descending Moncton Center
Sun 06:36:01 PM 45.2667 -62.4500 245° Southwest 230 265 15,300 -800 Descending Moncton Center
Sun 06:37:01 PM 45.2333 -62.5500 245° Southwest 240 276 14,200 -1,100 Descending Moncton Center
Sun 06:38:01 PM 45.2333 -62.6167 270° West 250 288 13,100 -1,050 Descending Moncton Center
Sun 06:39:01 PM 45.2000 -62.7167 245° Southwest 260 299 12,100 -1,100 Descending Moncton Center
Sun 06:40:01 PM 45.1833 -62.8000 254° West 250 288 10,900 -1,150 Descending Moncton Center
Sun 06:41:01 PM 45.1500 -62.9000 245° Southwest 250 288 9,800 -1,150 Descending Moncton Center
Sun 06:42:01 PM 45.1333 -63.0000 257° West 250 288 8,600 -1,200 Descending Moncton Center
Sun 06:43:01 PM 45.1000 -63.1000 245° Southwest 250 288 7,400 -1,200 Descending Moncton Center
Sun 06:44:01 PM 45.0833 -63.1833 254° West 240 276 6,200 -1,200 Descending Moncton Center
Sun 06:45:01 PM 45.0667 -63.2667 254° West 220 253 5,000 -1,100 Descending Moncton Center
Sun 06:46:01 PM 45.0333 -63.3333 235° Southwest 190 219 4,000 -900 Descending Moncton Center
Sun 06:47:01 PM 44.9833 -63.3833 215° Southwest 190 219 3,200 -850 Descending Moncton Center
Sun 06:48:01 PM 44.9500 -63.4000 199° South 180 207 2,300 -900 Descending Moncton Center
Sun 06:49:01 PM 44.9167 -63.4500 227° Southwest 140 161 1,400 -800 Descending Moncton Center
Sun 06:50:01 PM 44.8833 -63.4833 215° Southwest 120 138 700 -500 Descending Moncton Center
Sun 06:51:01 PM 44.8667 -63.5000 215° Southwest 110 127 400 -300 Descending Moncton Center

Login

Don't have an account? Register now (free) for customized features, flight alerts, and more!